//

Das europäische

Eingangstor zur

Zentralschweiz

Aviatik Kompetenzen

mit langer Tradition

Luftfahrt im Land

der Flugzeugbauer

Flugbasis für Arbeits- und

Geschäftsflüge mit hoher Priorität

METAR

LSZC 070720Z 07003KT 9999 BKN045 10/08 Q1012

 

TAF

LSZC 070525Z 0706/0715 VRB02KT 9999 -RA SCT050 BKN060 TEMPO 0708/0715 SHRA SCT035TCU PROB30 TEMPO 0708/0711 29015G25KT

METEO

NOTAM

B389/21
REF AIRAC AMDT 003/2021 EFFECTIVE 22 APR 2021: PAGES LSZC AD 2-8 AND 2.24.7-1 RWY 24 SID: WIL 3A CHANGE MCA AT ZC601 TO FL110 INSTEAD OF 10500FT.
FROM: 22.04.2021, 00:00z
TO: PERM

DABS

Heute
Morgen

FLÜGE

Anmelden
Timetable

Richtung West (Pilatus)

Richtung West (Pilatus)


Richtung Ost (Brunnen)

Richtung Ost (Brunnen)

Richtung Nord (Luzern)

Richtung Süd (Engelberg)

Privacy Settings
We use cookies to enhance your experience while using our website. If you are using our Services via a browser you can restrict, block or remove cookies through your web browser settings. We also use content and scripts from third parties that may use tracking technologies. You can selectively provide your consent below to allow such third party embeds. For complete information about the cookies we use, data we collect and how we process them, please check our Privacy Policy
Youtube
Consent to display content from Youtube
Vimeo
Consent to display content from Vimeo
Google Maps
Consent to display content from Google